Time;durP1;ratioP1;P1;durP2;ratioP2;P2;SDS_P1;SDS_P2;PMS_P1;PMS_P2;Temp;Humidity;BMP_temperature;BMP_pressure;BME280_temperature;BME280_humidity;BME280_pressure;Samples;Min_cycle;Max_cycle;Signal;HPM_P1;HPM_P2
2022/10/07 00:02:08;;;;;;;13.10;4.90;;;;;;;-145.69;100.00;72293.94;5074489;28;20657;-81
2022/10/07 00:04:35;;;;;;;16.10;5.10;;;;;;;-145.69;100.00;72291.97;5070159;28;20195;-82
2022/10/07 00:07:02;;;;;;;14.07;5.18;;;;;;;-145.69;100.00;72291.97;5054639;28;20249;-82
2022/10/07 00:09:30;;;;;;;8.13;4.05;;;;;;;-145.69;100.00;72297.94;5054346;28;20617;-82
2022/10/07 00:11:58;;;;;;;10.20;3.70;;;;;;;-145.69;100.00;72280.03;5054878;28;20218;-82
2022/10/07 00:14:25;;;;;;;13.23;3.63;;;;;;;-145.69;100.00;72282.00;5054792;28;20199;-81
2022/10/07 00:16:51;;;;;;;6.78;2.38;;;;;;;-145.69;100.00;72282.00;5053954;28;20227;-81
2022/10/07 00:19:18;;;;;;;9.25;2.55;;;;;;;-145.69;100.00;72274.06;5054293;28;20223;-82
2022/10/07 00:21:44;;;;;;;10.40;2.40;;;;;;;-145.69;100.00;72270.06;5054241;28;20218;-81
2022/10/07 00:24:11;;;;;;;10.52;2.17;;;;;;;-145.69;100.00;72264.09;5054237;28;20206;-81
2022/10/07 00:26:39;;;;;;;6.63;2.08;;;;;;;-145.69;100.00;72274.06;5057393;28;20191;-81
2022/10/07 00:29:06;;;;;;;8.63;2.75;;;;;;;-145.69;100.00;72274.06;5073506;28;20222;-82
2022/10/07 00:31:35;;;;;;;7.22;2.25;;;;;;;-145.69;100.00;72274.06;5073080;28;20199;-81
2022/10/07 00:34:03;;;;;;;8.77;2.13;;;;;;;-145.69;100.00;72274.06;5075255;28;20195;-81
2022/10/07 00:36:32;;;;;;;6.00;2.10;;;;;;;-145.69;100.00;72264.09;5069291;28;20669;-82
2022/10/07 00:39:00;;;;;;;8.15;2.60;;;;;;;-145.69;100.00;72254.16;5074774;28;20209;-83
2022/10/07 00:41:29;;;;;;;8.48;2.25;;;;;;;-145.69;100.00;72252.16;5074011;28;20657;-82
2022/10/07 00:43:58;;;;;;;4.57;2.38;;;;;;;-145.69;100.00;72250.16;5074598;28;20199;-81
2022/10/07 00:46:29;;;;;;;7.20;2.13;;;;;;;-145.69;100.00;72244.19;5062950;28;20204;-82
2022/10/07 00:48:57;;;;;;;7.15;2.10;;;;;;;-145.69;100.00;72258.13;5038597;28;20227;-82
2022/10/07 00:51:24;;;;;;;9.85;2.10;;;;;;;-145.69;100.00;72254.16;5037920;28;20199;-82
2022/10/07 00:53:53;;;;;;;9.27;2.47;;;;;;;-145.69;100.00;72238.22;5034301;28;20208;-82
2022/10/07 00:56:23;;;;;;;6.57;2.65;;;;;;;-145.69;100.00;72252.16;5035678;28;20288;-82
2022/10/07 00:58:50;;;;;;;10.15;2.03;;;;;;;-145.69;100.00;72252.16;5049550;28;20204;-83
2022/10/07 01:01:19;;;;;;;14.57;2.75;;;;;;;-145.69;100.00;72226.28;5054665;28;20644;-82
2022/10/07 01:03:47;;;;;;;10.57;2.40;;;;;;;-145.69;100.00;72218.31;5054581;28;20277;-82
2022/10/07 01:06:14;;;;;;;14.38;2.35;;;;;;;-145.69;100.00;72228.28;5054848;28;20195;-83
2022/10/07 01:08:42;;;;;;;8.68;2.58;;;;;;;-145.69;100.00;72230.25;5053953;28;20231;-82
2022/10/07 01:11:16;;;;;;;8.48;2.60;;;;;;;-145.69;100.00;72218.31;5070445;28;20252;-83
2022/10/07 01:13:53;;;;;;;5.95;2.70;;;;;;;-145.69;100.00;72224.28;5073579;28;20631;-81
2022/10/07 01:16:31;;;;;;;15.48;3.80;;;;;;;-145.69;100.00;72222.31;5074184;28;20712;-82
2022/10/07 01:19:08;;;;;;;7.47;3.30;;;;;;;-145.69;100.00;72216.34;5074135;28;20207;-83
2022/10/07 01:21:43;;;;;;;8.70;3.20;;;;;;;-145.69;100.00;72218.31;5073017;28;20552;-82
2022/10/07 01:24:22;;;;;;;11.55;3.30;;;;;;;-145.69;100.00;72218.31;5074456;28;20194;-82
2022/10/07 01:27:00;;;;;;;8.93;3.90;;;;;;;-145.69;100.00;72210.38;5073639;28;20202;-83
2022/10/07 01:29:33;;;;;;;8.63;3.80;;;;;;;-145.69;100.00;72218.31;5073605;28;20253;-82
2022/10/07 01:32:05;;;;;;;12.73;4.33;;;;;;;-145.69;100.00;72212.34;5073551;28;20198;-82
2022/10/07 01:34:34;;;;;;;16.38;5.13;;;;;;;-145.69;100.00;72206.38;5058865;28;20191;-81
2022/10/07 01:37:03;;;;;;;16.92;4.70;;;;;;;-145.69;100.00;72226.28;5066923;28;20209;-81
2022/10/07 01:39:36;;;;;;;13.33;4.00;;;;;;;-145.69;100.00;72250.16;5074524;28;20660;-82
2022/10/07 01:42:04;;;;;;;21.33;5.00;;;;;;;-145.69;100.00;72252.16;5073744;28;20214;-82
2022/10/07 01:44:31;;;;;;;11.93;4.30;;;;;;;-145.69;100.00;72264.09;5077806;28;20211;-82
2022/10/07 01:46:58;;;;;;;24.20;7.37;;;;;;;-145.69;100.00;72256.13;5078338;28;20202;-82
2022/10/07 01:49:25;;;;;;;22.23;6.40;;;;;;;-145.69;100.00;72246.19;5078307;28;20301;-82
2022/10/07 01:52:03;;;;;;;19.33;7.77;;;;;;;-145.69;100.00;72238.22;5077285;28;20209;-82
2022/10/07 01:54:46;;;;;;;18.50;7.20;;;;;;;-145.69;100.00;72238.22;5078070;28;20209;-83
2022/10/07 01:57:25;;;;;;;17.73;7.73;;;;;;;-145.69;100.00;72238.22;5074982;28;20199;-81
2022/10/07 02:00:08;;;;;;;20.50;7.27;;;;;;;-145.69;100.00;72250.16;5056979;28;20207;-82
2022/10/07 02:02:59;;;;;;;27.73;7.77;;;;;;;-145.69;100.00;72250.16;5057435;28;20211;-82
2022/10/07 02:05:37;;;;;;;21.90;7.10;;;;;;;-145.69;100.00;72270.06;5057323;28;20199;-82
2022/10/07 02:08:25;;;;;;;20.23;7.57;;;;;;;-145.69;100.00;72280.03;5057512;28;20208;-83
2022/10/07 02:11:04;;;;;;;18.40;7.40;;;;;;;-145.69;100.00;72287.97;5073112;28;20223;-82
2022/10/07 02:13:37;;;;;;;11.75;5.82;;;;;;;-145.69;100.00;72297.94;5077039;28;20569;-81
2022/10/07 02:16:11;;;;;;;10.57;5.37;;;;;;;-145.69;100.00;72329.78;5063266;28;20211;-82
2022/10/07 02:18:42;;;;;;;12.27;4.77;;;;;;;-145.69;100.00;72339.72;5058060;28;20234;-82
2022/10/07 02:21:11;;;;;;;11.37;4.67;;;;;;;-145.69;100.00;72357.66;5060017;28;20206;-82
2022/10/07 02:23:39;;;;;;;11.53;4.07;;;;;;;-145.69;100.00;72353.66;5078113;28;20194;-81
2022/10/07 02:26:08;;;;;;;13.83;6.33;;;;;;;-145.69;100.00;72349.69;5077325;28;20213;-82
2022/10/07 02:28:39;;;;;;;13.23;4.47;;;;;;;-145.69;100.00;72369.59;5077570;28;20677;-81
2022/10/07 02:31:09;;;;;;;10.87;4.87;;;;;;;-145.69;100.00;72381.53;5077088;28;20627;-81
2022/10/07 02:33:37;;;;;;;16.63;7.00;;;;;;;-145.69;100.00;72387.50;5074205;28;20195;-82
2022/10/07 02:36:09;;;;;;;16.47;6.67;;;;;;;-145.69;100.00;72395.47;5066287;28;20565;-82
2022/10/07 02:38:36;;;;;;;12.63;5.90;;;;;;;-145.69;100.00;72395.47;5076478;28;20205;-81
2022/10/07 02:41:07;;;;;;;13.75;6.53;;;;;;;-145.69;100.00;72391.47;5076066;28;20449;-82
2022/10/07 02:43:43;;;;;;;20.23;6.77;;;;;;;-145.69;100.00;72383.53;5076656;28;20194;-81
2022/10/07 02:46:16;;;;;;;21.47;7.43;;;;;;;-145.69;100.00;72369.59;5076281;28;20190;-82
2022/10/07 02:48:47;;;;;;;18.27;8.40;;;;;;;-145.69;100.00;72357.66;5076887;28;20645;-82
2022/10/07 02:51:18;;;;;;;25.43;9.10;;;;;;;-145.69;100.00;72341.72;5076665;28;20227;-82
2022/10/07 02:53:48;;;;;;;24.30;7.70;;;;;;;-145.69;100.00;72343.72;5051978;28;20204;-82
2022/10/07 02:56:16;;;;;;;25.37;7.97;;;;;;;-145.69;100.00;72353.66;5034720;28;20652;-82
2022/10/07 02:58:45;;;;;;;29.93;13.33;;;;;;;-145.69;100.00;72313.84;5048234;28;20204;-80
2022/10/07 03:01:17;;;;;;;49.33;18.70;;;;;;;-145.69;100.00;72282.00;5055745;28;20207;-82
2022/10/07 03:03:44;;;;;;;32.08;12.15;;;;;;;-145.69;100.00;72282.00;5055816;28;20223;-81
2022/10/07 03:06:12;;;;;;;38.55;16.48;;;;;;;-145.69;100.00;72278.03;5056182;28;20227;-82
2022/10/07 03:08:39;;;;;;;49.95;16.85;;;;;;;-145.69;100.00;72250.16;5055791;28;20207;-81
2022/10/07 03:11:06;;;;;;;37.87;15.03;;;;;;;-145.69;100.00;72238.22;5072541;28;20230;-81
2022/10/07 03:13:34;;;;;;;26.52;12.88;;;;;;;-145.69;100.00;72242.22;5075687;28;20229;-82
2022/10/07 03:16:02;;;;;;;41.65;16.35;;;;;;;-145.69;100.00;72228.28;5075527;28;20199;-82
2022/10/07 03:18:29;;;;;;;38.80;15.13;;;;;;;-145.69;100.00;72214.34;5075570;28;20234;-82
2022/10/07 03:20:59;;;;;;;35.67;13.88;;;;;;;-145.69;100.00;72222.31;5074899;28;20207;-81
2022/10/07 03:23:27;;;;;;;32.85;14.48;;;;;;;-145.69;100.00;72222.31;5055391;28;20257;-81
2022/10/07 03:25:57;;;;;;;33.10;14.40;;;;;;;-145.69;100.00;72198.41;5055059;28;20257;-81
2022/10/07 03:28:24;;;;;;;35.38;14.10;;;;;;;-145.69;100.00;72194.44;5055096;28;20210;-81
2022/10/07 03:30:52;;;;;;;32.90;14.68;;;;;;;-145.69;100.00;72188.47;5055176;28;20223;-81
2022/10/07 03:33:25;;;;;;;32.15;15.45;;;;;;;-145.69;100.00;72194.44;5055095;28;20210;-82
2022/10/07 03:35:51;;;;;;;40.95;16.15;;;;;;;-145.69;100.00;72182.50;5056135;28;20196;-82
2022/10/07 03:38:18;;;;;;;39.50;14.55;;;;;;;-145.69;100.00;72178.53;5055242;28;20199;-81
2022/10/07 03:40:44;;;;;;;37.25;16.10;;;;;;;-145.69;100.00;72166.56;5054730;28;20199;-82
2022/10/07 03:43:11;;;;;;;33.00;15.32;;;;;;;-145.69;100.00;72156.63;5054922;28;20195;-82
2022/10/07 03:45:43;;;;;;;34.28;13.77;;;;;;;-145.69;100.00;72158.63;5054172;28;20214;-80
2022/10/07 03:48:09;;;;;;;34.33;13.32;;;;;;;-145.69;100.00;72162.59;5034653;28;20650;-80
2022/10/07 03:50:37;;;;;;;27.95;13.77;;;;;;;-145.69;100.00;72158.63;5034825;28;20227;-82
2022/10/07 03:53:04;;;;;;;33.47;13.23;;;;;;;-145.69;100.00;72168.56;5034624;28;20563;-80
2022/10/07 03:55:31;;;;;;;30.15;12.55;;;;;;;-145.69;100.00;72172.53;5034638;28;20259;-80
2022/10/07 03:57:57;;;;;;;31.45;12.85;;;;;;;-145.69;100.00;72166.56;5037111;28;20258;-80
2022/10/07 04:00:25;;;;;;;36.85;14.05;;;;;;;-145.69;100.00;72162.59;5054823;28;20582;-82
2022/10/07 04:02:52;;;;;;;30.02;12.48;;;;;;;-145.69;100.00;72164.59;5054661;28;20203;-82
2022/10/07 04:05:20;;;;;;;29.65;13.23;;;;;;;-145.69;100.00;72162.59;5054632;28;20270;-82
2022/10/07 04:07:50;;;;;;;31.55;13.20;;;;;;;-145.69;100.00;72158.63;5054243;28;20207;-83
2022/10/07 04:10:19;;;;;;;30.95;12.77;;;;;;;-145.69;100.00;72158.63;5058257;28;20315;-83
2022/10/07 04:12:47;;;;;;;29.42;13.52;;;;;;;-145.69;100.00;72164.59;5072684;28;20199;-82
2022/10/07 04:15:14;;;;;;;26.67;11.32;;;;;;;-145.69;100.00;72170.56;5054335;28;20196;-82
2022/10/07 04:17:41;;;;;;;29.30;13.45;;;;;;;-145.69;100.00;72166.56;5054127;28;20231;-83
2022/10/07 04:20:09;;;;;;;34.60;13.77;;;;;;;-145.69;100.00;72154.63;5053918;28;20210;-82
2022/10/07 04:22:36;;;;;;;27.00;12.13;;;;;;;-145.69;100.00;72158.63;5053895;28;20202;-82
2022/10/07 04:27:51;;;;;;;31.97;15.27;;;;;;;-145.69;100.00;72148.66;5073059;28;20421;-82
2022/10/07 04:30:18;;;;;;;26.58;12.80;;;;;;;-145.69;100.00;72144.69;5073615;28;20534;-82
2022/10/07 04:32:44;;;;;;;30.65;12.73;;;;;;;-145.69;100.00;72142.69;5073620;28;20198;-83
2022/10/07 04:35:11;;;;;;;24.95;12.40;;;;;;;-145.69;100.00;72142.69;5068047;28;20210;-83
2022/10/07 04:37:37;;;;;;;28.27;11.80;;;;;;;-145.69;100.00;72142.69;5054042;28;20211;-82
2022/10/07 04:40:06;;;;;;;27.63;13.25;;;;;;;-145.69;100.00;72148.66;5054237;28;20195;-82
2022/10/07 04:45:16;;;;;;;21.75;12.30;;;;;;;-145.69;100.00;72170.56;5054568;28;20195;-82
2022/10/07 04:47:45;;;;;;;28.85;12.75;;;;;;;-145.69;100.00;72186.47;5054192;28;20650;-81
2022/10/07 04:50:11;;;;;;;29.70;13.15;;;;;;;-145.69;100.00;72168.56;5036281;28;20231;-81
2022/10/07 04:52:39;;;;;;;36.67;14.00;;;;;;;-145.69;100.00;72172.53;5033763;28;20670;-82
2022/10/07 04:55:09;;;;;;;22.92;11.45;;;;;;;-145.69;100.00;72204.38;5035851;28;20204;-82
2022/10/07 04:57:36;;;;;;;28.95;12.07;;;;;;;-145.69;100.00;72234.25;5033915;28;20200;-82
2022/10/07 05:00:03;;;;;;;29.48;13.38;;;;;;;-145.69;100.00;72250.16;5054089;28;20207;-82
2022/10/07 05:02:30;;;;;;;29.48;13.02;;;;;;;-145.69;100.00;72286.00;5053719;28;20562;-82
2022/10/07 05:04:56;;;;;;;26.67;11.57;;;;;;;-145.69;100.00;72305.91;5054008;28;20209;-82
2022/10/07 05:07:23;;;;;;;30.45;12.75;;;;;;;-145.69;100.00;72293.94;5054365;28;20199;-82
2022/10/07 05:09:51;;;;;;;23.23;12.00;;;;;;;-145.69;100.00;72329.78;5053102;28;20203;-82
2022/10/07 05:12:19;;;;;;;33.43;13.70;;;;;;;-145.69;100.00;72341.72;5055515;28;20203;-83
2022/10/07 05:14:46;;;;;;;27.20;12.93;;;;;;;-145.69;100.00;72361.63;5062611;28;20254;-83
2022/10/07 05:17:13;;;;;;;27.30;12.43;;;;;;;-145.69;100.00;72373.56;5057902;28;20231;-83
2022/10/07 05:19:40;;;;;;;24.77;12.27;;;;;;;-145.69;100.00;72391.47;5057215;28;20213;-83
2022/10/07 05:22:07;;;;;;;27.80;12.90;;;;;;;-145.69;100.00;72383.53;5058404;28;20226;-83
2022/10/07 05:24:33;;;;;;;39.75;15.25;;;;;;;-145.69;100.00;72391.47;5075279;28;20202;-83
2022/10/07 05:27:00;;;;;;;31.50;13.97;;;;;;;-145.69;100.00;72397.44;5075789;28;20202;-82
2022/10/07 05:29:30;;;;;;;33.60;14.53;;;;;;;-145.69;100.00;72399.44;5074135;28;20645;-82
2022/10/07 05:31:58;;;;;;;28.17;12.57;;;;;;;-145.69;100.00;72411.38;5074197;28;20252;-82
2022/10/07 05:34:24;;;;;;;30.63;13.07;;;;;;;-145.69;100.00;72427.31;5073401;28;20199;-82
2022/10/07 05:36:50;;;;;;;42.33;16.10;;;;;;;-145.69;100.00;72383.53;5074489;28;20199;-83
2022/10/07 05:39:17;;;;;;;31.53;14.43;;;;;;;-145.69;100.00;72409.38;5074988;28;20206;-82
2022/10/07 05:41:43;;;;;;;39.63;15.13;;;;;;;-145.69;100.00;72409.38;5073184;28;20545;-81
2022/10/07 05:44:10;;;;;;;36.80;16.17;;;;;;;-145.69;100.00;72409.38;5073052;28;20203;-81
2022/10/07 05:46:39;;;;;;;35.50;16.07;;;;;;;-145.69;100.00;72421.34;5072874;28;20203;-81
2022/10/07 05:49:05;;;;;;;46.37;18.23;;;;;;;-145.69;100.00;72409.38;5032966;28;20196;-82
2022/10/07 05:51:31;;;;;;;40.97;16.93;;;;;;;-145.69;100.00;72423.31;5032916;28;20235;-81
2022/10/07 05:53:58;;;;;;;34.20;13.97;;;;;;;-145.69;100.00;72429.28;5032862;28;20203;-81
2022/10/07 05:56:25;;;;;;;36.40;15.93;;;;;;;-145.69;100.00;72419.34;5032672;28;20246;-81
2022/10/07 05:58:52;;;;;;;34.07;15.30;;;;;;;-145.69;100.00;72437.25;5036319;28;20199;-81
2022/10/07 06:01:21;;;;;;;30.53;13.90;;;;;;;-145.69;100.00;72441.25;5052702;28;20677;-81
2022/10/07 06:03:52;;;;;;;31.03;13.20;;;;;;;-145.69;100.00;72443.22;5053452;28;20199;-82
2022/10/07 06:06:19;;;;;;;29.50;13.20;;;;;;;-145.69;100.00;72447.22;5053018;28;20203;-82
2022/10/07 06:08:46;;;;;;;45.50;17.73;;;;;;;-145.69;100.00;72435.28;5054961;28;20211;-83
2022/10/07 06:13:59;;;;;;;40.80;17.03;;;;;;;-145.69;100.00;72411.38;5053460;28;20210;-82
2022/10/07 06:16:26;;;;;;;34.60;15.13;;;;;;;-145.69;100.00;72413.38;5053178;28;20570;-82
2022/10/07 06:18:55;;;;;;;37.13;13.70;;;;;;;-145.69;100.00;72409.38;5052669;28;20208;-82
2022/10/07 06:21:26;;;;;;;50.10;17.93;;;;;;;-145.69;100.00;72385.50;5057137;28;20204;-82
2022/10/07 06:23:53;;;;;;;37.30;15.53;;;;;;;-145.69;100.00;72379.53;5056030;28;20195;-83
2022/10/07 06:26:21;;;;;;;33.03;13.67;;;;;;;-145.69;100.00;72365.59;5055245;28;20215;-83
2022/10/07 06:28:48;;;;;;;33.50;12.63;;;;;;;-145.69;100.00;72363.63;5054453;28;20200;-83
2022/10/07 06:31:16;;;;;;;29.23;12.80;;;;;;;-145.69;100.00;72347.69;5056765;28;20227;-81
2022/10/07 06:33:43;;;;;;;31.50;12.70;;;;;;;-145.69;100.00;72345.69;5056142;28;20200;-82
2022/10/07 06:36:13;;;;;;;29.45;14.90;;;;;;;-145.69;100.00;72343.72;5071264;28;20442;-81
2022/10/07 06:38:44;;;;;;;32.03;13.67;;;;;;;-145.69;100.00;72339.72;5075972;28;20203;-81
2022/10/07 06:41:10;;;;;;;26.77;11.67;;;;;;;-145.69;100.00;72313.84;5076099;28;20199;-81
2022/10/07 06:43:37;;;;;;;26.90;12.97;;;;;;;-145.69;100.00;72309.88;5075923;28;20552;-81
2022/10/07 06:46:06;;;;;;;28.47;12.43;;;;;;;-145.69;100.00;72297.94;5075787;28;20657;-81
2022/10/07 06:48:34;;;;;;;24.17;12.85;;;;;;;-145.69;100.00;72276.03;5055514;28;20230;-81
2022/10/07 06:51:02;;;;;;;36.53;15.02;;;;;;;-145.69;100.00;72254.16;5053308;28;20219;-81
2022/10/07 06:53:30;;;;;;;31.55;13.75;;;;;;;-145.69;100.00;72220.31;5055708;28;20669;-80
2022/10/07 06:56:01;;;;;;;29.25;13.90;;;;;;;-145.69;100.00;72182.50;5055587;28;20235;-81
2022/10/07 06:58:27;;;;;;;32.78;14.80;;;;;;;-145.69;100.00;72182.50;5055747;28;20200;-78
2022/10/07 07:00:54;;;;;;;25.98;13.85;;;;;;;-145.69;100.00;72156.63;5035313;28;20200;-80
2022/10/07 07:03:21;;;;;;;22.55;11.82;;;;;;;-145.69;100.00;72126.78;5035788;28;20246;-80
2022/10/07 07:05:50;;;;;;;26.67;12.60;;;;;;;-145.69;100.00;72081.00;5035557;28;20203;-80
2022/10/07 07:08:17;;;;;;;17.38;7.60;;;;;;;-145.69;100.00;72071.03;5035605;28;20251;-78
2022/10/07 07:10:45;;;;;;;15.07;8.98;;;;;;;-145.69;100.00;72039.19;5038083;28;20318;-78
2022/10/07 07:13:13;;;;;;;18.25;9.73;;;;;;;-145.69;100.00;72061.09;5075280;28;20635;-78
2022/10/07 07:15:40;;;;;;;15.77;9.20;;;;;;;-145.69;100.00;72041.19;5075261;28;20218;-78
2022/10/07 07:18:09;;;;;;;14.75;8.82;;;;;;;-145.69;100.00;72055.13;5074899;28;20580;-78
2022/10/07 07:20:36;;;;;;;18.98;9.55;;;;;;;-145.69;100.00;72047.16;5063557;28;20211;-79
2022/10/07 07:23:03;;;;;;;15.43;9.75;;;;;;;-145.69;100.00;72013.31;5055267;28;20199;-80
2022/10/07 07:25:31;;;;;;;15.25;8.85;;;;;;;-145.69;100.00;72015.31;5055372;28;20206;-79
2022/10/07 07:28:00;;;;;;;17.38;8.82;;;;;;;-145.69;100.00;72027.25;5055378;28;20199;-80
2022/10/07 07:30:27;;;;;;;17.13;10.25;;;;;;;-145.69;100.00;72055.13;5062820;28;20584;-81
2022/10/07 07:32:54;;;;;;;17.73;10.02;;;;;;;-145.69;100.00;72057.13;5075449;28;20200;-80
2022/10/07 07:35:21;;;;;;;17.65;9.70;;;;;;;-145.69;100.00;72043.19;5075109;28;20199;-80
2022/10/07 07:37:47;;;;;;;16.17;9.85;;;;;;;-145.69;100.00;72021.28;5075798;28;20206;-79
2022/10/07 07:40:14;;;;;;;15.63;8.95;;;;;;;-145.69;100.00;71961.59;5074580;28;20198;-79
2022/10/07 07:42:40;;;;;;;14.68;8.57;;;;;;;-145.69;100.00;71925.75;5074159;28;20191;-79
2022/10/07 07:45:09;;;;;;;17.70;8.82;;;;;;;-145.69;100.00;71913.81;5075619;28;20294;-81
2022/10/07 07:47:36;;;;;;;17.42;9.07;;;;;;;-145.69;100.00;71935.72;5075747;28;20692;-79
2022/10/07 07:50:03;;;;;;;18.23;9.52;;;;;;;-145.69;100.00;71935.72;5075781;28;20202;-80
2022/10/07 07:52:30;;;;;;;17.98;10.00;;;;;;;-145.69;100.00;71965.56;5074844;28;20241;-82
2022/10/07 07:54:57;;;;;;;14.93;9.20;;;;;;;-145.69;100.00;71941.69;5068728;28;20286;-79
2022/10/07 07:57:24;;;;;;;16.02;9.07;;;;;;;-145.69;100.00;71943.69;5055114;28;20214;-78
2022/10/07 07:59:51;;;;;;;15.95;9.23;;;;;;;-145.69;100.00;71939.69;5054415;28;20547;-77
2022/10/07 08:02:19;;;;;;;15.38;8.23;;;;;;;-145.69;100.00;71907.84;5054392;28;20196;-77
2022/10/07 08:04:46;;;;;;;18.33;9.15;;;;;;;-145.69;100.00;71935.72;5058627;28;20239;-78
2022/10/07 08:07:12;;;;;;;15.02;9.75;;;;;;;-145.69;100.00;71911.84;5053299;28;20446;-78
2022/10/07 08:09:39;;;;;;;13.25;8.77;;;;;;;-145.69;100.00;71862.06;5054151;28;20195;-79
2022/10/07 08:12:06;;;;;;;14.43;9.10;;;;;;;-145.69;100.00;71840.19;5053801;28;20227;-79
2022/10/07 08:14:33;;;;;;;17.05;8.27;;;;;;;-145.69;100.00;71810.34;5054425;28;20569;-79
2022/10/07 08:17:00;;;;;;;18.65;8.57;;;;;;;-145.69;100.00;71788.44;5074145;28;20242;-79
2022/10/07 08:19:29;;;;;;;17.05;8.85;;;;;;;-145.69;100.00;71804.38;5063113;28;20196;-81
2022/10/07 08:21:56;;;;;;;14.95;8.98;;;;;;;-145.69;100.00;71812.31;5054057;28;20677;-83
2022/10/07 08:24:24;;;;;;;15.73;9.23;;;;;;;-145.69;100.00;71901.88;5054615;28;20294;-80
2022/10/07 08:26:52;;;;;;;18.08;10.10;;;;;;;-145.69;100.00;71931.72;5054159;28;20677;-80
2022/10/07 08:29:19;;;;;;;17.30;9.10;;;;;;;-145.69;100.00;71860.09;5054599;28;20199;-79
2022/10/07 08:31:46;;;;;;;15.93;9.30;;;;;;;-145.69;100.00;71828.25;5054048;28;20313;-81
2022/10/07 08:34:13;;;;;;;13.38;9.38;;;;;;;-145.69;100.00;71840.19;5054220;28;20673;-81
2022/10/07 08:36:45;;;;;;;17.55;8.90;;;;;;;-145.69;100.00;71844.16;5053650;28;20259;-82
2022/10/07 08:39:13;;;;;;;15.95;8.70;;;;;;;-145.69;100.00;71868.06;5054441;28;20215;-81
2022/10/07 08:41:45;;;;;;;20.35;10.02;;;;;;;-145.69;100.00;71852.13;5054317;28;20207;-83
2022/10/07 08:44:18;;;;;;;12.73;8.02;;;;;;;-145.69;100.00;71802.38;5052263;28;20210;-82
2022/10/07 08:46:53;;;;;;;12.48;8.10;;;;;;;-145.69;100.00;71824.25;5054413;28;20654;-81
2022/10/07 08:49:27;;;;;;;11.98;7.90;;;;;;;-145.69;100.00;71866.06;5073435;28;20217;-81
2022/10/07 08:52:02;;;;;;;15.30;9.07;;;;;;;-145.69;100.00;71840.19;5058214;28;20223;-82
2022/10/07 08:54:30;;;;;;;14.32;7.50;;;;;;;-145.69;100.00;71820.28;5033616;28;20200;-80
2022/10/07 08:57:02;;;;;;;15.15;8.98;;;;;;;-145.69;100.00;71822.28;5036777;28;20200;-81
2022/10/07 08:59:31;;;;;;;10.23;6.95;;;;;;;-145.69;100.00;71754.63;5073405;28;20565;-80
2022/10/07 09:02:14;;;;;;;18.08;8.15;;;;;;;-145.69;100.00;71720.78;5073267;28;20209;-78
2022/10/07 09:04:53;;;;;;;10.63;6.97;;;;;;;-145.69;100.00;71684.97;5073532;28;20202;-79
2022/10/07 09:07:30;;;;;;;11.60;7.35;;;;;;;-145.69;100.00;71706.84;5071640;28;20210;-82
2022/10/07 09:10:01;;;;;;;12.55;7.32;;;;;;;-145.69;100.00;71724.75;5073318;28;20210;-82
2022/10/07 09:12:34;;;;;;;10.73;7.53;;;;;;;-145.69;100.00;71653.13;5073345;28;20221;-76
2022/10/07 09:15:03;;;;;;;11.30;6.95;;;;;;;-145.69;100.00;71700.88;5073071;28;20202;-77
2022/10/07 09:17:35;;;;;;;11.43;7.10;;;;;;;-145.69;100.00;71716.81;5071328;28;20590;-77
2022/10/07 09:20:06;;;;;;;11.80;6.47;;;;;;;-145.69;100.00;71716.81;5073276;28;20205;-76
2022/10/07 09:22:38;;;;;;;10.65;6.20;;;;;;;-145.69;100.00;71692.94;5072901;28;20294;-77
2022/10/07 09:25:18;;;;;;;8.65;6.13;;;;;;;-145.69;100.00;71667.06;5073238;28;20206;-78
2022/10/07 09:27:45;;;;;;;11.38;6.82;;;;;;;-145.69;100.00;71611.34;5070764;28;20201;-77
2022/10/07 09:30:13;;;;;;;10.48;6.22;;;;;;;-145.69;100.00;71605.38;5052955;28;20676;-78
2022/10/07 09:32:43;;;;;;;10.05;5.40;;;;;;;-145.69;100.00;71571.53;5052692;28;20242;-78
2022/10/07 09:35:12;;;;;;;8.35;4.85;;;;;;;-145.69;100.00;71569.53;5052169;28;20843;-77
2022/10/07 09:37:54;;;;;;;8.10;5.18;;;;;;;-145.69;100.00;71708.84;5052689;28;20550;-79
2022/10/07 09:40:30;;;;;;;9.80;5.55;;;;;;;-145.69;100.00;71782.47;5059381;28;20202;-80
2022/10/07 09:42:58;;;;;;;7.95;4.78;;;;;;;-145.69;100.00;71810.34;5072830;28;20206;-77
2022/10/07 09:45:26;;;;;;;8.93;5.35;;;;;;;-145.69;100.00;71820.28;5072927;28;20210;-82
2022/10/07 09:47:56;;;;;;;7.82;5.63;;;;;;;-145.69;100.00;71832.22;5073019;28;20198;-83
2022/10/07 09:50:32;;;;;;;7.95;4.72;;;;;;;-145.69;100.00;71794.41;5071809;28;20557;-83
2022/10/07 09:53:01;;;;;;;7.47;4.78;;;;;;;-145.69;100.00;71772.53;5072917;28;20676;-84
2022/10/07 09:55:36;;;;;;;8.45;5.13;;;;;;;-145.69;100.00;71764.56;5073058;28;20207;-83
2022/10/07 09:58:04;;;;;;;8.52;5.68;;;;;;;-145.69;100.00;71802.38;5072525;28;20190;-83
2022/10/07 10:00:31;;;;;;;8.80;4.95;;;;;;;-145.69;100.00;71770.53;5071353;28;20256;-84
2022/10/07 10:03:04;;;;;;;13.23;5.63;;;;;;;-145.69;100.00;71780.50;5073009;28;20539;-85
2022/10/07 10:05:32;;;;;;;8.07;5.40;;;;;;;-145.69;100.00;71792.44;5075679;28;20205;-81
2022/10/07 10:08:03;;;;;;;13.55;5.03;;;;;;;-145.69;100.00;71702.88;5076756;28;20195;-81
2022/10/07 10:10:31;;;;;;;9.82;6.00;;;;;;;-145.69;100.00;71621.28;5076393;28;20205;-77
2022/10/07 10:12:59;;;;;;;9.43;4.90;;;;;;;-145.69;100.00;71635.22;5076614;28;20236;-77
2022/10/07 10:15:38;;;;;;;10.93;5.47;;;;;;;-145.69;100.00;71621.28;5076637;28;20199;-78
2022/10/07 10:18:34;;;;;;;9.00;4.93;;;;;;;-145.69;100.00;71575.50;5068847;28;20226;-78
2022/10/07 10:21:26;;;;;;;11.43;5.70;;;;;;;-145.69;100.00;71491.94;5076241;28;20579;-78
2022/10/07 10:23:56;;;;;;;9.82;5.93;;;;;;;-145.69;100.00;71474.03;5073832;28;20207;-78
2022/10/07 10:26:44;;;;;;;8.02;5.57;;;;;;;-145.69;100.00;71480.00;5076240;28;20206;-79
2022/10/07 10:29:23;;;;;;;10.15;5.15;;;;;;;-145.69;100.00;71527.75;5057366;28;20295;-78
2022/10/07 10:32:08;;;;;;;8.35;5.38;;;;;;;-145.69;100.00;71549.66;5056064;28;20223;-78
2022/10/07 10:34:42;;;;;;;9.23;4.90;;;;;;;-145.69;100.00;71517.81;5056111;28;20295;-77
2022/10/07 10:37:17;;;;;;;9.40;5.60;;;;;;;-145.69;100.00;71511.84;5055642;28;20195;-77
2022/10/07 10:39:56;;;;;;;8.63;5.57;;;;;;;-145.69;100.00;71507.84;5058780;28;20605;-78
2022/10/07 10:42:34;;;;;;;7.63;4.75;;;;;;;-145.69;100.00;71513.81;5076055;28;20203;-77
2022/10/07 10:45:14;;;;;;;10.80;5.13;;;;;;;-145.69;100.00;71458.09;5075986;28;20256;-77
2022/10/07 10:47:59;;;;;;;8.35;4.75;;;;;;;-145.69;100.00;71434.22;5064646;28;20199;-77
2022/10/07 10:50:40;;;;;;;8.50;5.50;;;;;;;-145.69;100.00;71482.00;5035633;28;20258;-78
2022/10/07 10:53:18;;;;;;;7.65;4.93;;;;;;;-145.69;100.00;71454.13;5065702;28;20218;-77
2022/10/07 10:56:03;;;;;;;9.80;4.70;;;;;;;-145.69;100.00;71440.19;5075652;28;20289;-78
2022/10/07 10:58:39;;;;;;;7.22;4.65;;;;;;;-145.69;100.00;71493.94;5075247;28;20203;-77
2022/10/07 11:01:15;;;;;;;8.70;4.65;;;;;;;-145.69;100.00;71482.00;5075299;28;20229;-78
2022/10/07 11:04:19;;;;;;;13.38;5.55;;;;;;;-145.69;100.00;71440.19;5072730;28;20560;-78
2022/10/07 11:06:53;;;;;;;8.93;4.97;;;;;;;-145.69;100.00;71485.97;5053900;28;20195;-79
2022/10/07 11:09:30;;;;;;;10.88;4.75;;;;;;;-145.69;100.00;71466.06;5055455;28;20196;-78
2022/10/07 11:12:03;;;;;;;8.75;4.93;;;;;;;-145.69;100.00;71460.09;5055356;28;20222;-78
2022/10/07 11:14:31;;;;;;;10.45;5.07;;;;;;;-145.69;100.00;71438.22;5055110;28;20202;-79
2022/10/07 11:17:03;;;;;;;9.60;5.20;;;;;;;-145.69;100.00;71478.00;5066807;28;20223;-78
2022/10/07 11:19:38;;;;;;;13.48;5.50;;;;;;;-145.69;100.00;71517.81;5074620;28;20657;-79
2022/10/07 11:22:13;;;;;;;9.77;5.32;;;;;;;-145.69;100.00;71482.00;5059034;28;20283;-78